createdAt,value
2022-08-16T00:00:22.508Z,97705.84
2022-08-16T00:01:25.057Z,97703.13
2022-08-16T00:02:30.514Z,97706.91
2022-08-16T00:03:31.994Z,97701.75
2022-08-16T00:04:39.394Z,97703.88
2022-08-16T00:05:48.232Z,97699.22
2022-08-16T00:06:50.772Z,97699.03
2022-08-16T00:07:56.842Z,97698.34
2022-08-16T00:08:58.536Z,97701.69
2022-08-16T00:10:00.401Z,97698.88
2022-08-16T00:11:02.277Z,97699.31
2022-08-16T00:12:04.427Z,97704.66
2022-08-16T00:13:10.728Z,97699.19
2022-08-16T00:14:15.467Z,97707.69
2022-08-16T00:15:52.101Z,97704.69
2022-08-16T00:17:11.543Z,97701.34
2022-08-16T00:18:19.088Z,97701.47
2022-08-16T00:19:28.803Z,97701.34
2022-08-16T00:20:46.023Z,97702.09
2022-08-16T00:21:53.269Z,97699.81
2022-08-16T00:22:57.275Z,97705.63
2022-08-16T00:23:59.357Z,97703.59
2022-08-16T00:25:08.811Z,97698.25
2022-08-16T00:26:34.964Z,97698.34
2022-08-16T00:27:34.066Z,97698.16
2022-08-16T00:28:35.501Z,97697.50
2022-08-16T00:29:37.914Z,97697.09
2022-08-16T00:30:39.702Z,97700.50
2022-08-16T00:32:00.112Z,97697.41
2022-08-16T00:33:07.055Z,97704.53
2022-08-16T00:34:09.940Z,97705.72
2022-08-16T00:35:29.100Z,97699.31
2022-08-16T00:36:30.616Z,97708.63
2022-08-16T00:37:57.182Z,97705.38
2022-08-16T00:38:54.305Z,97713.84
2022-08-16T00:39:58.539Z,97715.78
2022-08-16T00:41:01.339Z,97712.47
2022-08-16T00:42:03.427Z,97714.41
2022-08-16T00:43:12.258Z,97712.72
2022-08-16T00:44:22.430Z,97717.66
2022-08-16T00:45:57.853Z,97724.59
2022-08-16T00:47:10.302Z,97717.00
2022-08-16T00:48:30.712Z,97718.59
2022-08-16T00:49:39.489Z,97721.47
2022-08-16T00:50:46.677Z,97721.16
2022-08-16T00:51:56.793Z,97725.34
2022-08-16T00:52:59.193Z,97717.81
2022-08-16T00:54:01.379Z,97712.03
2022-08-16T00:55:04.175Z,97719.09
2022-08-16T00:56:58.632Z,97712.84
2022-08-16T00:57:59.598Z,97716.59
2022-08-16T00:58:57.771Z,97709.81
2022-08-16T01:00:04.726Z,97714.56
2022-08-16T01:01:08.551Z,97712.09
2022-08-16T01:02:30.668Z,97711.75
2022-08-16T01:03:35.170Z,97709.28
2022-08-16T01:04:37.304Z,97715.34
2022-08-16T01:05:39.405Z,97721.50
2022-08-16T01:06:49.366Z,97706.09
2022-08-16T01:08:36.562Z,97716.22
2022-08-16T01:09:27.545Z,97718.88
2022-08-16T01:10:38.093Z,97721.16
2022-08-16T01:11:51.715Z,97723.13
2022-08-16T01:12:57.106Z,97727.00
2022-08-16T01:14:13.733Z,97719.84
2022-08-16T01:15:16.367Z,97728.69
2022-08-16T01:16:22.181Z,97728.88
2022-08-16T01:17:28.772Z,97719.78
2022-08-16T01:19:02.645Z,97723.31
2022-08-16T01:20:24.051Z,97722.88
2022-08-16T01:21:33.436Z,97720.53
2022-08-16T01:22:52.371Z,97715.06
2022-08-16T01:24:52.613Z,97722.72
2022-08-16T01:25:41.933Z,97727.41
2022-08-16T01:26:49.000Z,97731.72
2022-08-16T01:27:56.926Z,97719.97
2022-08-16T01:29:02.634Z,97724.72
2022-08-16T01:30:19.465Z,97721.69
2022-08-16T01:31:22.806Z,97724.06
2022-08-16T01:32:36.048Z,97723.13
2022-08-16T01:33:37.546Z,97723.47
2022-08-16T01:34:47.206Z,97723.66
2022-08-16T01:36:11.624Z,97727.63
2022-08-16T01:37:16.208Z,97730.06
2022-08-16T01:38:29.646Z,97725.13
2022-08-16T01:39:31.865Z,97729.13
2022-08-16T01:40:37.381Z,97718.38
2022-08-16T01:41:42.093Z,97730.63
2022-08-16T01:42:49.677Z,97724.78
2022-08-16T01:43:55.596Z,97719.66
2022-08-16T01:45:03.566Z,97728.25
2022-08-16T01:46:38.465Z,97727.22
2022-08-16T01:47:49.434Z,97727.00
2022-08-16T01:48:58.947Z,97729.41
2022-08-16T01:50:43.165Z,97726.56
2022-08-16T01:51:25.527Z,97737.88
2022-08-16T01:52:28.218Z,97735.94
2022-08-16T01:53:32.068Z,97732.75
2022-08-16T01:54:37.553Z,97735.03
2022-08-16T01:55:40.629Z,97733.97
2022-08-16T01:56:42.920Z,97735.47
2022-08-16T01:57:53.490Z,97728.84
2022-08-16T01:59:00.134Z,97731.88
2022-08-16T02:00:04.808Z,97732.63
2022-08-16T02:01:12.714Z,97741.06
2022-08-16T02:02:27.473Z,97730.94
2022-08-16T02:03:30.272Z,97734.59
2022-08-16T02:04:48.802Z,97731.84
2022-08-16T02:05:53.122Z,97726.47
2022-08-16T02:06:54.621Z,97723.72
2022-08-16T02:07:57.098Z,97724.81
2022-08-16T02:08:59.367Z,97727.72
2022-08-16T02:10:01.949Z,97726.13
2022-08-16T02:11:08.859Z,97723.22
2022-08-16T02:12:50.481Z,97733.84
2022-08-16T02:13:33.184Z,97728.13
2022-08-16T02:14:36.325Z,97724.03
2022-08-16T02:15:43.832Z,97727.22
2022-08-16T02:16:45.617Z,97736.28
2022-08-16T02:17:47.051Z,97736.47
2022-08-16T02:18:54.090Z,97732.47
2022-08-16T02:19:59.703Z,97733.56
2022-08-16T02:21:04.331Z,97734.97
2022-08-16T02:22:34.888Z,97739.91
2022-08-16T02:23:33.501Z,97733.31
2022-08-16T02:24:42.073Z,97730.75
2022-08-16T02:25:51.898Z,97736.00
2022-08-16T02:26:56.288Z,97731.16
2022-08-16T02:27:59.242Z,97727.41
2022-08-16T02:29:01.909Z,97739.19
2022-08-16T02:30:07.658Z,97734.34
2022-08-16T02:31:13.233Z,97737.28
2022-08-16T02:33:01.043Z,97733.19
2022-08-16T02:33:44.480Z,97740.25
2022-08-16T02:34:51.735Z,97742.03
2022-08-16T02:35:59.961Z,97739.47
2022-08-16T02:37:02.096Z,97751.31
2022-08-16T02:38:08.970Z,97740.56
2022-08-16T02:39:14.898Z,97748.41
2022-08-16T02:40:17.563Z,97741.16
2022-08-16T02:41:20.152Z,97742.91
2022-08-16T02:42:21.820Z,97738.31
2022-08-16T02:43:27.414Z,97746.75
2022-08-16T02:44:29.508Z,97740.25
2022-08-16T02:45:31.868Z,97740.91
2022-08-16T02:46:33.875Z,97735.00
2022-08-16T02:48:01.258Z,97739.47
2022-08-16T02:48:57.237Z,97736.41
2022-08-16T02:51:03.135Z,97732.88
2022-08-16T02:51:27.322Z,97740.16
2022-08-16T02:52:29.708Z,97742.06
2022-08-16T02:53:36.185Z,97745.41
2022-08-16T02:54:37.721Z,97739.19
2022-08-16T02:55:41.571Z,97741.47
2022-08-16T02:56:43.507Z,97733.53
2022-08-16T02:57:54.476Z,97735.78
2022-08-16T02:58:56.574Z,97726.03
2022-08-16T02:59:58.467Z,97729.03
2022-08-16T03:01:03.487Z,97720.50
2022-08-16T03:02:08.219Z,97731.28
2022-08-16T03:03:11.118Z,97730.56
2022-08-16T03:04:29.612Z,97727.38
2022-08-16T03:05:38.149Z,97724.84
2022-08-16T03:06:42.619Z,97733.97
2022-08-16T03:07:50.613Z,97740.72
2022-08-16T03:08:53.956Z,97737.06
2022-08-16T03:09:55.429Z,97741.38
2022-08-16T03:11:02.368Z,97736.44
2022-08-16T03:12:05.622Z,97730.03
2022-08-16T03:13:12.285Z,97739.19
2022-08-16T03:14:20.889Z,97737.16
2022-08-16T03:15:27.690Z,97738.22
2022-08-16T03:16:36.514Z,97738.22
2022-08-16T03:17:53.181Z,97745.25
2022-08-16T03:18:55.849Z,97742.22
2022-08-16T03:20:00.259Z,97742.31
2022-08-16T03:21:04.702Z,97740.47
2022-08-16T03:22:07.424Z,97740.91
2022-08-16T03:23:09.407Z,97728.97
2022-08-16T03:24:29.079Z,97734.03
2022-08-16T03:25:41.086Z,97732.56
2022-08-16T03:26:46.258Z,97740.81
2022-08-16T03:27:48.106Z,97738.97
2022-08-16T03:28:51.496Z,97735.63
2022-08-16T03:29:54.422Z,97743.16
2022-08-16T03:30:56.356Z,97737.84
2022-08-16T03:31:59.657Z,97734.22
2022-08-16T03:33:04.946Z,97736.25
2022-08-16T03:34:07.029Z,97737.13
2022-08-16T03:35:10.272Z,97735.03
2022-08-16T03:36:30.138Z,97736.13
2022-08-16T03:37:33.470Z,97725.47
2022-08-16T03:38:55.090Z,97724.31
2022-08-16T03:40:02.735Z,97727.03
2022-08-16T03:41:08.877Z,97730.91
2022-08-16T03:42:26.869Z,97731.41
2022-08-16T03:43:51.242Z,97734.72
2022-08-16T03:44:50.354Z,97736.34
2022-08-16T03:45:55.296Z,97735.47
2022-08-16T03:46:58.297Z,97741.16
2022-08-16T03:48:02.924Z,97748.38
2022-08-16T03:49:10.755Z,97737.09
2022-08-16T03:50:25.378Z,97738.31
2022-08-16T03:51:28.422Z,97744.91
2022-08-16T03:52:31.744Z,97739.41
2022-08-16T03:53:38.122Z,97736.31
2022-08-16T03:54:53.379Z,97740.16
2022-08-16T03:55:59.360Z,97740.91
2022-08-16T03:57:00.917Z,97744.31
2022-08-16T03:58:02.750Z,97738.63
2022-08-16T03:59:06.571Z,97747.13
2022-08-16T04:00:20.267Z,97745.72
2022-08-16T04:01:24.437Z,97753.81
2022-08-16T04:02:31.806Z,97743.81
2022-08-16T04:03:33.924Z,97743.53
2022-08-16T04:04:38.079Z,97745.94
2022-08-16T04:05:46.585Z,97746.41
2022-08-16T04:06:48.264Z,97747.28
2022-08-16T04:07:53.051Z,97744.78
2022-08-16T04:08:55.433Z,97748.28
2022-08-16T04:09:58.538Z,97748.88
2022-08-16T04:11:00.417Z,97752.00
2022-08-16T04:12:02.642Z,97753.41
2022-08-16T04:13:04.916Z,97756.16
2022-08-16T04:14:32.344Z,97752.31
2022-08-16T04:15:34.650Z,97762.88
2022-08-16T04:16:36.236Z,97757.88
2022-08-16T04:17:37.843Z,97750.75
2022-08-16T04:18:42.957Z,97758.75
2022-08-16T04:19:47.721Z,97758.88
2022-08-16T04:20:54.813Z,97757.81
2022-08-16T04:21:57.916Z,97752.25
2022-08-16T04:23:02.589Z,97754.66
2022-08-16T04:24:07.759Z,97762.28
2022-08-16T04:25:11.181Z,97761.50
2022-08-16T04:26:16.921Z,97755.53
2022-08-16T04:27:19.482Z,97771.59
2022-08-16T04:28:29.283Z,97766.25
2022-08-16T04:29:46.103Z,97764.16
2022-08-16T04:30:48.248Z,97766.81
2022-08-16T04:31:55.542Z,97768.00
2022-08-16T04:32:58.869Z,97766.56
2022-08-16T04:34:01.463Z,97769.56
2022-08-16T04:35:08.406Z,97759.56
2022-08-16T04:36:20.000Z,97763.63
2022-08-16T04:37:21.960Z,97771.31
2022-08-16T04:38:23.957Z,97769.16
2022-08-16T04:39:45.847Z,97775.34
2022-08-16T04:40:50.072Z,97778.06
2022-08-16T04:41:56.857Z,97775.66
2022-08-16T04:43:02.148Z,97778.41
2022-08-16T04:44:31.054Z,97778.00
2022-08-16T04:45:35.523Z,97777.34
2022-08-16T04:47:01.128Z,97774.31
2022-08-16T04:48:00.121Z,97783.16
2022-08-16T04:49:03.398Z,97785.88
2022-08-16T04:50:09.583Z,97787.56
2022-08-16T04:51:12.625Z,97779.59
2022-08-16T04:52:32.784Z,97784.09
2022-08-16T04:53:36.320Z,97789.69
2022-08-16T04:54:43.181Z,97789.63
2022-08-16T04:55:44.913Z,97781.69
2022-08-16T04:56:46.541Z,97800.97
2022-08-16T04:57:53.752Z,97793.53
2022-08-16T04:58:57.608Z,97795.28
2022-08-16T04:59:59.668Z,97786.41
2022-08-16T05:01:21.585Z,97790.19
2022-08-16T05:02:41.624Z,97785.03
2022-08-16T05:04:01.047Z,97784.09
2022-08-16T05:05:03.968Z,97785.88
2022-08-16T05:06:07.143Z,97789.72
2022-08-16T05:07:15.022Z,97789.28
2022-08-16T05:08:28.870Z,97787.59
2022-08-16T05:09:36.487Z,97791.78
2022-08-16T05:10:41.090Z,97788.69
2022-08-16T05:11:42.539Z,97796.28
2022-08-16T05:12:44.821Z,97789.03
2022-08-16T05:13:47.626Z,97788.28
2022-08-16T05:15:01.501Z,97788.53
2022-08-16T05:16:05.000Z,97784.19
2022-08-16T05:17:07.614Z,97786.69
2022-08-16T05:18:15.981Z,97786.97
2022-08-16T05:19:18.962Z,97785.59
2022-08-16T05:20:38.622Z,97787.03
2022-08-16T05:21:43.067Z,97787.22
2022-08-16T05:22:44.699Z,97782.44
2022-08-16T05:23:51.703Z,97786.94
2022-08-16T05:24:57.783Z,97791.09
2022-08-16T05:26:00.766Z,97791.34
2022-08-16T05:27:11.338Z,97790.28
2022-08-16T05:28:13.535Z,97791.09
2022-08-16T05:29:15.385Z,97793.03
2022-08-16T05:30:34.572Z,97784.84
2022-08-16T05:31:37.338Z,97793.69
2022-08-16T05:32:49.969Z,97789.44
2022-08-16T05:33:53.589Z,97797.03
2022-08-16T05:34:56.254Z,97791.28
2022-08-16T05:35:57.864Z,97798.13
2022-08-16T05:36:59.331Z,97797.47
2022-08-16T05:38:02.099Z,97798.28
2022-08-16T05:39:06.442Z,97795.53
2022-08-16T05:40:13.155Z,97802.81
2022-08-16T05:41:16.920Z,97799.69
2022-08-16T05:42:20.222Z,97793.06
2022-08-16T05:43:22.301Z,97797.97
2022-08-16T05:44:25.238Z,97805.47
2022-08-16T05:45:26.862Z,97800.88
2022-08-16T05:46:30.793Z,97803.78
2022-08-16T05:47:33.206Z,97802.53
2022-08-16T05:48:45.635Z,97800.53
2022-08-16T05:49:56.892Z,97797.78
2022-08-16T05:50:58.993Z,97796.97
2022-08-16T05:52:01.598Z,97797.59
2022-08-16T05:53:03.735Z,97797.09
2022-08-16T05:54:08.107Z,97793.97
2022-08-16T05:55:11.180Z,97792.91
2022-08-16T05:56:19.262Z,97782.16
2022-08-16T05:57:21.457Z,97786.22
2022-08-16T05:58:32.786Z,97791.03
2022-08-16T05:59:34.875Z,97792.22
2022-08-16T06:00:38.618Z,97784.56
2022-08-16T06:01:41.545Z,97782.72
2022-08-16T06:02:43.524Z,97795.69
2022-08-16T06:03:45.786Z,97794.50
2022-08-16T06:04:49.410Z,97795.13
2022-08-16T06:05:50.922Z,97797.84
2022-08-16T06:06:56.251Z,97792.31
2022-08-16T06:07:59.213Z,97804.19
2022-08-16T06:09:00.938Z,97796.44
2022-08-16T06:10:02.771Z,97800.53
2022-08-16T06:11:10.143Z,97798.81
2022-08-16T06:12:27.446Z,97803.25
2022-08-16T06:13:32.746Z,97804.38
2022-08-16T06:14:34.333Z,97802.16
2022-08-16T06:15:35.854Z,97799.97
2022-08-16T06:16:38.301Z,97802.13
2022-08-16T06:17:42.253Z,97807.88
2022-08-16T06:18:45.527Z,97801.94
2022-08-16T06:19:46.981Z,97804.44
2022-08-16T06:20:55.612Z,97807.97
2022-08-16T06:21:57.610Z,97800.34
2022-08-16T06:23:04.175Z,97793.72
2022-08-16T06:24:53.594Z,97805.63
2022-08-16T06:25:36.159Z,97808.00
2022-08-16T06:26:45.939Z,97803.16
2022-08-16T06:27:59.353Z,97801.25
2022-08-16T06:29:02.756Z,97797.19
2022-08-16T06:30:07.287Z,97797.25
2022-08-16T06:31:12.004Z,97809.63
2022-08-16T06:32:27.363Z,97812.56
2022-08-16T06:33:29.974Z,97807.13
2022-08-16T06:34:57.017Z,97815.13
2022-08-16T06:35:59.587Z,97819.44
2022-08-16T06:37:01.433Z,97814.78
2022-08-16T06:38:04.934Z,97812.06
2022-08-16T06:39:06.436Z,97818.53
2022-08-16T06:40:12.998Z,97817.81
2022-08-16T06:41:17.616Z,97814.38
2022-08-16T06:42:19.539Z,97820.09
2022-08-16T06:43:25.854Z,97815.13
2022-08-16T06:44:29.288Z,97822.19
2022-08-16T06:45:31.098Z,97809.38
2022-08-16T06:46:36.783Z,97815.69
2022-08-16T06:47:52.923Z,97814.09
2022-08-16T06:48:57.978Z,97815.25
2022-08-16T06:50:00.029Z,97817.72
2022-08-16T06:51:04.064Z,97821.34
2022-08-16T06:52:05.817Z,97814.69
2022-08-16T06:53:27.692Z,97824.53
2022-08-16T06:54:31.192Z,97811.69
2022-08-16T06:55:35.034Z,97821.09
2022-08-16T06:56:40.261Z,97818.38
2022-08-16T06:57:42.895Z,97822.63
2022-08-16T06:58:46.850Z,97829.13
2022-08-16T06:59:53.020Z,97828.31
2022-08-16T07:01:03.901Z,97838.81
2022-08-16T07:02:32.500Z,97834.75
2022-08-16T07:03:55.227Z,97831.63
2022-08-16T07:04:55.310Z,97831.19
2022-08-16T07:05:57.983Z,97829.25
2022-08-16T07:07:00.633Z,97831.75
2022-08-16T07:08:04.267Z,97831.78
2022-08-16T07:09:09.451Z,97839.91
2022-08-16T07:10:11.817Z,97832.03
2022-08-16T07:11:20.812Z,97835.75
2022-08-16T07:12:47.352Z,97835.16
2022-08-16T07:14:26.318Z,97833.63
2022-08-16T07:15:25.783Z,97837.44
2022-08-16T07:16:27.711Z,97836.31
2022-08-16T07:17:29.408Z,97835.16
2022-08-16T07:18:32.668Z,97836.00
2022-08-16T07:20:04.036Z,97838.59
2022-08-16T07:21:01.760Z,97842.53
2022-08-16T07:22:03.881Z,97834.50
2022-08-16T07:23:13.055Z,97838.69
2022-08-16T07:24:29.924Z,97843.00
2022-08-16T07:25:33.746Z,97837.69
2022-08-16T07:26:41.969Z,97835.41
2022-08-16T07:27:50.466Z,97841.25
2022-08-16T07:28:52.273Z,97833.38
2022-08-16T07:29:55.517Z,97838.53
2022-08-16T07:30:59.916Z,97832.13
2022-08-16T07:32:02.430Z,97833.59
2022-08-16T07:33:07.061Z,97831.31
2022-08-16T07:34:10.169Z,97839.06
2022-08-16T07:35:12.281Z,97836.13
2022-08-16T07:36:22.080Z,97838.47
2022-08-16T07:37:24.151Z,97834.16
2022-08-16T07:38:33.620Z,97835.53
2022-08-16T07:39:36.035Z,97833.59
2022-08-16T07:41:00.825Z,97834.50
2022-08-16T07:42:03.279Z,97828.41
2022-08-16T07:43:08.676Z,97831.53
2022-08-16T07:44:16.353Z,97840.69
2022-08-16T07:45:19.056Z,97836.63
2022-08-16T07:46:37.734Z,97836.16
2022-08-16T07:47:43.999Z,97835.56
2022-08-16T07:48:47.522Z,97828.84
2022-08-16T07:49:53.385Z,97837.69
2022-08-16T07:51:02.399Z,97836.00
2022-08-16T07:52:19.099Z,97838.22
2022-08-16T07:53:22.471Z,97842.66
2022-08-16T07:54:37.739Z,97843.69
2022-08-16T07:55:47.857Z,97846.03
2022-08-16T07:56:49.788Z,97840.03
2022-08-16T07:57:58.107Z,97846.31
2022-08-16T07:59:02.746Z,97846.91
2022-08-16T08:00:05.177Z,97841.22
2022-08-16T08:01:10.551Z,97846.63
2022-08-16T08:02:20.351Z,97846.16
2022-08-16T08:03:22.905Z,97846.44
2022-08-16T08:04:38.543Z,97842.34
2022-08-16T08:05:42.243Z,97844.13
2022-08-16T08:06:45.146Z,97843.97
2022-08-16T08:07:46.611Z,97842.00
2022-08-16T08:08:57.441Z,97844.41
2022-08-16T08:10:00.920Z,97852.44
2022-08-16T08:11:09.052Z,97849.16
2022-08-16T08:12:32.447Z,97839.75
2022-08-16T08:13:42.303Z,97849.25
2022-08-16T08:14:44.457Z,97852.31
2022-08-16T08:15:52.718Z,97850.19
2022-08-16T08:16:55.098Z,97840.44
2022-08-16T08:18:00.693Z,97843.69
2022-08-16T08:19:19.060Z,97845.72
2022-08-16T08:20:28.445Z,97856.03
2022-08-16T08:22:00.603Z,97846.63
2022-08-16T08:23:00.573Z,97847.94
2022-08-16T08:24:03.113Z,97844.13
2022-08-16T08:25:12.977Z,97838.16
2022-08-16T08:26:17.663Z,97843.47
2022-08-16T08:27:22.878Z,97835.13
2022-08-16T08:28:25.727Z,97829.09
2022-08-16T08:29:37.788Z,97839.19
2022-08-16T08:30:51.675Z,97837.84
2022-08-16T08:32:03.467Z,97839.19
2022-08-16T08:33:25.655Z,97837.38
2022-08-16T08:34:29.326Z,97840.97
2022-08-16T08:35:32.317Z,97840.72
2022-08-16T08:36:38.698Z,97839.75
2022-08-16T08:37:54.803Z,97839.84
2022-08-16T08:38:57.962Z,97841.44
2022-08-16T08:40:00.613Z,97844.06
2022-08-16T08:41:04.576Z,97845.78
2022-08-16T08:42:07.180Z,97845.53
2022-08-16T08:43:18.237Z,97840.41
2022-08-16T08:44:29.412Z,97850.72
2022-08-16T08:45:49.242Z,97843.19
2022-08-16T08:47:00.014Z,97845.88
2022-08-16T08:48:03.723Z,97846.63
2022-08-16T08:49:10.567Z,97846.53
2022-08-16T08:50:14.403Z,97843.75
2022-08-16T08:51:36.999Z,97850.72
2022-08-16T08:52:40.659Z,97854.66
2022-08-16T08:53:43.215Z,97850.28
2022-08-16T08:54:44.756Z,97850.53
2022-08-16T08:55:59.181Z,97851.28
2022-08-16T08:57:01.135Z,97846.09
2022-08-16T08:58:04.023Z,97850.38
2022-08-16T08:59:13.614Z,97856.31
2022-08-16T09:00:26.882Z,97850.72
2022-08-16T09:01:36.443Z,97851.34
2022-08-16T09:02:51.688Z,97853.53
2022-08-16T09:03:53.951Z,97847.94
2022-08-16T09:04:57.236Z,97858.50
2022-08-16T09:05:59.219Z,97848.47
2022-08-16T09:07:03.891Z,97845.22
2022-08-16T09:08:06.299Z,97852.75
2022-08-16T09:09:17.124Z,97850.72
2022-08-16T09:10:20.900Z,97852.66
2022-08-16T09:11:23.104Z,97851.19
2022-08-16T09:12:42.424Z,97850.69
2022-08-16T09:13:49.760Z,97844.66
2022-08-16T09:14:52.658Z,97843.34
2022-08-16T09:15:58.122Z,97849.97
2022-08-16T09:17:03.407Z,97854.16
2022-08-16T09:18:26.294Z,97853.72
2022-08-16T09:19:32.283Z,97856.97
2022-08-16T09:20:35.391Z,97850.34
2022-08-16T09:21:56.806Z,97857.31
2022-08-16T09:22:59.504Z,97853.13
2022-08-16T09:24:02.952Z,97852.59
2022-08-16T09:25:12.976Z,97847.44
2022-08-16T09:26:46.372Z,97856.16
2022-08-16T09:27:56.691Z,97853.44
2022-08-16T09:29:15.722Z,97845.13
2022-08-16T09:30:34.443Z,97849.06
2022-08-16T09:31:41.765Z,97838.25
2022-08-16T09:32:47.066Z,97847.34
2022-08-16T09:33:51.953Z,97837.88
2022-08-16T09:34:53.798Z,97846.91
2022-08-16T09:36:00.812Z,97842.91
2022-08-16T09:37:02.380Z,97845.06
2022-08-16T09:38:31.191Z,97840.31
2022-08-16T09:39:41.018Z,97849.50
2022-08-16T09:40:47.048Z,97833.22
2022-08-16T09:41:53.795Z,97836.47
2022-08-16T09:42:59.501Z,97836.19
2022-08-16T09:45:10.545Z,97835.25
2022-08-16T09:45:25.826Z,97844.31
2022-08-16T09:46:45.024Z,97837.41
2022-08-16T09:47:57.867Z,97841.25
2022-08-16T09:49:03.791Z,97847.47
2022-08-16T09:50:11.941Z,97843.28
2022-08-16T09:51:13.994Z,97838.59
2022-08-16T09:52:15.587Z,97844.97
2022-08-16T09:53:22.676Z,97846.75
2022-08-16T09:54:32.690Z,97841.31
2022-08-16T09:55:34.499Z,97846.81
2022-08-16T09:56:52.658Z,97841.03
2022-08-16T09:57:55.082Z,97841.72
2022-08-16T09:59:03.909Z,97835.97
2022-08-16T10:00:42.465Z,97835.78
2022-08-16T10:01:33.387Z,97834.97
2022-08-16T10:02:35.039Z,97839.19
2022-08-16T10:04:02.556Z,97846.16
2022-08-16T10:05:06.337Z,97840.72
2022-08-16T10:06:08.003Z,97833.78
2022-08-16T10:07:15.852Z,97832.00
2022-08-16T10:08:26.456Z,97837.84
2022-08-16T10:09:44.859Z,97836.94
2022-08-16T10:11:09.559Z,97836.38
2022-08-16T10:12:29.899Z,97836.53
2022-08-16T10:13:34.282Z,97845.91
2022-08-16T10:14:36.881Z,97842.09
2022-08-16T10:15:41.737Z,97831.88
2022-08-16T10:16:45.739Z,97843.41
2022-08-16T10:17:59.929Z,97841.09
2022-08-16T10:19:06.718Z,97837.69
2022-08-16T10:20:18.386Z,97833.75
2022-08-16T10:21:22.709Z,97840.16
2022-08-16T10:22:25.038Z,97842.41
2022-08-16T10:23:28.724Z,97846.81
2022-08-16T10:24:30.800Z,97838.97
2022-08-16T10:27:17.873Z,97844.25
2022-08-16T10:27:21.248Z,97834.06
2022-08-16T10:28:28.049Z,97836.97
2022-08-16T10:30:01.519Z,97835.75
2022-08-16T10:30:56.592Z,97834.56
2022-08-16T10:32:00.613Z,97834.38
2022-08-16T10:33:05.372Z,97838.81
2022-08-16T10:34:31.299Z,97836.13
2022-08-16T10:35:33.095Z,97836.50
2022-08-16T10:36:39.294Z,97838.47
2022-08-16T10:37:41.392Z,97840.78
2022-08-16T10:38:42.914Z,97844.78
2022-08-16T10:39:44.446Z,97836.34
2022-08-16T10:40:47.969Z,97830.75
2022-08-16T10:41:49.950Z,97835.59
2022-08-16T10:42:51.509Z,97840.50
2022-08-16T10:43:53.058Z,97843.78
2022-08-16T10:44:54.991Z,97838.56
2022-08-16T10:45:59.939Z,97829.91
2022-08-16T10:47:02.560Z,97832.69
2022-08-16T10:48:27.144Z,97836.97
2022-08-16T10:49:28.407Z,97837.38
2022-08-16T10:50:32.414Z,97835.47
2022-08-16T10:52:00.818Z,97840.69
2022-08-16T10:52:59.113Z,97837.59
2022-08-16T10:54:01.202Z,97842.91
2022-08-16T10:56:55.951Z,97836.97
2022-08-16T10:57:49.113Z,97837.34
2022-08-16T10:58:50.644Z,97842.91
2022-08-16T10:59:57.855Z,97842.16
2022-08-16T11:01:00.567Z,97837.69
2022-08-16T11:03:42.356Z,97844.84
2022-08-16T11:06:11.979Z,97839.88
2022-08-16T11:08:40.789Z,97837.59
2022-08-16T11:09:46.462Z,97842.16
2022-08-16T11:11:14.154Z,97839.19
2022-08-16T11:12:14.004Z,97834.38
2022-08-16T11:17:28.705Z,97828.72
2022-08-16T11:19:03.061Z,97833.50
2022-08-16T11:21:29.133Z,97831.19
2022-08-16T11:22:47.095Z,97823.00
2022-08-16T11:23:58.166Z,97830.09
2022-08-16T11:26:07.414Z,97832.75
2022-08-16T11:26:24.285Z,97835.75
2022-08-16T11:27:35.532Z,97826.63
2022-08-16T11:29:12.643Z,97832.09
2022-08-16T11:29:58.905Z,97839.41
2022-08-16T11:31:00.759Z,97840.66
2022-08-16T11:32:05.973Z,97829.50
2022-08-16T11:33:09.570Z,97821.03
2022-08-16T11:34:16.221Z,97825.50
2022-08-16T11:35:44.307Z,97826.69
2022-08-16T11:36:53.907Z,97825.41
2022-08-16T11:38:42.274Z,97816.47
2022-08-16T11:39:32.677Z,97824.09
2022-08-16T11:40:44.306Z,97823.28
2022-08-16T11:41:46.360Z,97823.53
2022-08-16T11:42:53.477Z,97816.28
2022-08-16T11:43:56.771Z,97813.38
2022-08-16T11:44:58.804Z,97817.22
2022-08-16T11:46:43.104Z,97811.72
2022-08-16T11:47:29.978Z,97818.75
2022-08-16T11:48:33.533Z,97809.06
2022-08-16T11:49:35.220Z,97818.75
2022-08-16T11:50:37.131Z,97814.97
2022-08-16T11:51:39.667Z,97817.94
2022-08-16T11:52:41.124Z,97817.56
2022-08-16T11:53:48.247Z,97813.91
2022-08-16T11:54:53.966Z,97809.06
2022-08-16T11:55:59.825Z,97810.78
2022-08-16T11:57:01.584Z,97812.16
2022-08-16T11:58:03.726Z,97809.78
2022-08-16T11:59:05.317Z,97812.28
2022-08-16T12:00:34.026Z,97814.34
2022-08-16T12:01:54.767Z,97819.63
2022-08-16T12:02:56.934Z,97814.88
2022-08-16T12:03:58.374Z,97809.25
2022-08-16T12:05:02.043Z,97809.09
2022-08-16T12:06:25.123Z,97815.91
2022-08-16T12:07:27.328Z,97804.91
2022-08-16T12:08:31.045Z,97812.09
2022-08-16T12:09:32.486Z,97812.66
2022-08-16T12:10:37.288Z,97814.97
2022-08-16T12:11:39.196Z,97810.97
2022-08-16T12:12:42.779Z,97806.31
2022-08-16T12:13:48.323Z,97811.31
2022-08-16T12:14:59.421Z,97814.03
2022-08-16T12:16:02.579Z,97813.69
2022-08-16T12:17:05.523Z,97812.72
2022-08-16T12:18:08.579Z,97809.94
2022-08-16T12:19:13.583Z,97813.38
2022-08-16T12:20:19.374Z,97804.75
2022-08-16T12:21:21.442Z,97804.53
2022-08-16T12:22:24.856Z,97808.53
2022-08-16T12:23:26.649Z,97820.28
2022-08-16T12:24:28.522Z,97803.94
2022-08-16T12:25:31.959Z,97809.78
2022-08-16T12:26:34.885Z,97807.09
2022-08-16T12:27:39.389Z,97804.88
2022-08-16T12:28:54.848Z,97805.25
2022-08-16T12:29:58.548Z,97808.09
2022-08-16T12:31:01.172Z,97801.34
2022-08-16T12:32:26.803Z,97810.22
2022-08-16T12:33:25.237Z,97814.09
2022-08-16T12:34:28.955Z,97810.09
2022-08-16T12:35:32.586Z,97815.38
2022-08-16T12:36:35.757Z,97808.88
2022-08-16T12:37:37.612Z,97810.78
2022-08-16T12:38:48.211Z,97814.34
2022-08-16T12:39:54.950Z,97810.91
2022-08-16T12:40:57.440Z,97814.03
2022-08-16T12:41:59.448Z,97814.41
2022-08-16T12:43:05.331Z,97815.63
2022-08-16T12:44:06.830Z,97813.88
2022-08-16T12:45:13.892Z,97814.59
2022-08-16T12:46:16.793Z,97814.50
2022-08-16T12:47:37.556Z,97813.34
2022-08-16T12:48:58.454Z,97809.72
2022-08-16T12:50:00.259Z,97800.69
2022-08-16T12:51:13.352Z,97806.84
2022-08-16T12:52:33.667Z,97804.97
2022-08-16T12:53:39.857Z,97801.66
2022-08-16T12:54:41.707Z,97798.56
2022-08-16T12:55:44.784Z,97795.94
2022-08-16T12:56:47.210Z,97798.97
2022-08-16T12:57:58.081Z,97793.13
2022-08-16T12:59:03.463Z,97796.66
2022-08-16T13:00:11.000Z,97795.31
2022-08-16T13:01:13.236Z,97802.13
2022-08-16T13:02:22.587Z,97799.28
2022-08-16T13:03:40.078Z,97794.19
2022-08-16T13:04:42.124Z,97792.13
2022-08-16T13:05:53.377Z,97788.78
2022-08-16T13:06:59.314Z,97783.06
2022-08-16T13:08:00.961Z,97782.47
2022-08-16T13:09:20.245Z,97784.22
2022-08-16T13:10:37.212Z,97786.31
2022-08-16T13:11:49.118Z,97784.22
2022-08-16T13:12:57.181Z,97787.81
2022-08-16T13:13:59.261Z,97789.03
2022-08-16T13:15:01.602Z,97786.09
2022-08-16T13:16:15.942Z,97779.47
2022-08-16T13:17:26.530Z,97787.72
2022-08-16T13:18:34.664Z,97788.31
2022-08-16T13:20:06.721Z,97780.56
2022-08-16T13:20:59.095Z,97782.59
2022-08-16T13:22:00.898Z,97785.50
2022-08-16T13:23:06.676Z,97787.09
2022-08-16T13:24:08.132Z,97786.09
2022-08-16T13:25:13.960Z,97782.34
2022-08-16T13:26:20.782Z,97772.59